sensor_id;sensor_type;location;lat;lon;timestamp;P1;durP1;ratioP1;P2;durP2;ratioP2
51556;SDS011;38766;53.194;5.532;2022-07-23T00:01:15;4.93;;;2.80;;
51556;SDS011;38766;53.194;5.532;2022-07-23T00:03:41;4.78;;;2.67;;
51556;SDS011;38766;53.194;5.532;2022-07-23T00:06:06;5.20;;;3.20;;
51556;SDS011;38766;53.194;5.532;2022-07-23T00:08:32;4.15;;;2.80;;
51556;SDS011;38766;53.194;5.532;2022-07-23T00:10:57;5.63;;;3.10;;
51556;SDS011;38766;53.194;5.532;2022-07-23T00:13:23;5.57;;;3.17;;
51556;SDS011;38766;53.194;5.532;2022-07-23T00:15:48;4.93;;;3.63;;
51556;SDS011;38766;53.194;5.532;2022-07-23T00:18:14;4.18;;;3.33;;
51556;SDS011;38766;53.194;5.532;2022-07-23T00:20:40;4.32;;;3.50;;
51556;SDS011;38766;53.194;5.532;2022-07-23T00:23:05;4.65;;;3.20;;
51556;SDS011;38766;53.194;5.532;2022-07-23T00:25:31;5.85;;;3.53;;
51556;SDS011;38766;53.194;5.532;2022-07-23T00:27:57;3.38;;;3.08;;
51556;SDS011;38766;53.194;5.532;2022-07-23T00:30:24;4.78;;;3.30;;
51556;SDS011;38766;53.194;5.532;2022-07-23T00:32:54;6.28;;;3.38;;
51556;SDS011;38766;53.194;5.532;2022-07-23T00:35:22;5.22;;;3.22;;
51556;SDS011;38766;53.194;5.532;2022-07-23T00:37:49;6.43;;;3.15;;
51556;SDS011;38766;53.194;5.532;2022-07-23T00:40:15;3.67;;;2.72;;
51556;SDS011;38766;53.194;5.532;2022-07-23T00:42:41;4.13;;;2.90;;
51556;SDS011;38766;53.194;5.532;2022-07-23T00:45:07;7.45;;;3.17;;
51556;SDS011;38766;53.194;5.532;2022-07-23T00:47:33;4.40;;;3.05;;
51556;SDS011;38766;53.194;5.532;2022-07-23T00:50:00;4.55;;;2.53;;
51556;SDS011;38766;53.194;5.532;2022-07-23T00:52:25;4.90;;;3.03;;
51556;SDS011;38766;53.194;5.532;2022-07-23T00:54:51;4.28;;;2.83;;
51556;SDS011;38766;53.194;5.532;2022-07-23T00:57:18;3.90;;;2.58;;
51556;SDS011;38766;53.194;5.532;2022-07-23T00:59:43;4.53;;;2.67;;
51556;SDS011;38766;53.194;5.532;2022-07-23T01:02:09;3.85;;;2.50;;
51556;SDS011;38766;53.194;5.532;2022-07-23T01:04:35;4.82;;;2.75;;
51556;SDS011;38766;53.194;5.532;2022-07-23T01:07:01;4.70;;;3.05;;
51556;SDS011;38766;53.194;5.532;2022-07-23T01:09:27;4.05;;;2.80;;
51556;SDS011;38766;53.194;5.532;2022-07-23T01:11:54;5.43;;;3.17;;
51556;SDS011;38766;53.194;5.532;2022-07-23T01:14:20;5.05;;;3.10;;
51556;SDS011;38766;53.194;5.532;2022-07-23T01:16:46;7.43;;;3.08;;
51556;SDS011;38766;53.194;5.532;2022-07-23T01:19:13;3.80;;;2.65;;
51556;SDS011;38766;53.194;5.532;2022-07-23T01:21:42;3.83;;;2.60;;
51556;SDS011;38766;53.194;5.532;2022-07-23T01:24:09;3.85;;;2.70;;
51556;SDS011;38766;53.194;5.532;2022-07-23T01:26:36;4.47;;;2.80;;
51556;SDS011;38766;53.194;5.532;2022-07-23T01:29:03;5.00;;;3.08;;
51556;SDS011;38766;53.194;5.532;2022-07-23T01:31:29;4.60;;;2.72;;
51556;SDS011;38766;53.194;5.532;2022-07-23T01:33:55;5.38;;;3.00;;
51556;SDS011;38766;53.194;5.532;2022-07-23T01:36:21;4.05;;;2.53;;
51556;SDS011;38766;53.194;5.532;2022-07-23T01:38:47;4.13;;;2.70;;
51556;SDS011;38766;53.194;5.532;2022-07-23T01:41:13;4.85;;;2.83;;
51556;SDS011;38766;53.194;5.532;2022-07-23T01:43:38;3.00;;;2.67;;
51556;SDS011;38766;53.194;5.532;2022-07-23T01:46:04;5.80;;;2.80;;
51556;SDS011;38766;53.194;5.532;2022-07-23T01:48:30;7.82;;;3.10;;
51556;SDS011;38766;53.194;5.532;2022-07-23T01:50:55;2.88;;;2.33;;
51556;SDS011;38766;53.194;5.532;2022-07-23T01:53:21;4.50;;;2.95;;
51556;SDS011;38766;53.194;5.532;2022-07-23T01:55:46;5.18;;;2.90;;
51556;SDS011;38766;53.194;5.532;2022-07-23T01:58:12;5.95;;;3.03;;
51556;SDS011;38766;53.194;5.532;2022-07-23T02:00:38;5.22;;;2.47;;
51556;SDS011;38766;53.194;5.532;2022-07-23T02:03:03;4.47;;;2.70;;
51556;SDS011;38766;53.194;5.532;2022-07-23T02:05:29;4.40;;;2.75;;
51556;SDS011;38766;53.194;5.532;2022-07-23T02:07:55;5.28;;;2.60;;
51556;SDS011;38766;53.194;5.532;2022-07-23T02:10:21;3.13;;;2.80;;
51556;SDS011;38766;53.194;5.532;2022-07-23T02:12:46;5.47;;;2.60;;
51556;SDS011;38766;53.194;5.532;2022-07-23T02:15:13;3.90;;;2.53;;
51556;SDS011;38766;53.194;5.532;2022-07-23T02:17:39;4.22;;;2.50;;
51556;SDS011;38766;53.194;5.532;2022-07-23T02:20:05;4.07;;;2.80;;
51556;SDS011;38766;53.194;5.532;2022-07-23T02:22:32;3.72;;;2.83;;
51556;SDS011;38766;53.194;5.532;2022-07-23T02:24:57;3.17;;;2.88;;
51556;SDS011;38766;53.194;5.532;2022-07-23T02:27:23;4.07;;;2.70;;
51556;SDS011;38766;53.194;5.532;2022-07-23T02:29:49;2.75;;;2.50;;
51556;SDS011;38766;53.194;5.532;2022-07-23T02:32:15;3.10;;;2.55;;
51556;SDS011;38766;53.194;5.532;2022-07-23T02:34:40;5.40;;;2.35;;
51556;SDS011;38766;53.194;5.532;2022-07-23T02:37:06;4.82;;;2.50;;
51556;SDS011;38766;53.194;5.532;2022-07-23T02:39:33;6.38;;;2.60;;
51556;SDS011;38766;53.194;5.532;2022-07-23T02:42:00;3.15;;;2.38;;
51556;SDS011;38766;53.194;5.532;2022-07-23T02:44:26;3.78;;;2.67;;
51556;SDS011;38766;53.194;5.532;2022-07-23T02:46:51;4.90;;;2.63;;
51556;SDS011;38766;53.194;5.532;2022-07-23T02:49:17;3.30;;;2.65;;
51556;SDS011;38766;53.194;5.532;2022-07-23T02:51:42;4.53;;;2.20;;
51556;SDS011;38766;53.194;5.532;2022-07-23T02:54:08;4.75;;;2.50;;
51556;SDS011;38766;53.194;5.532;2022-07-23T02:56:34;4.15;;;2.60;;
51556;SDS011;38766;53.194;5.532;2022-07-23T02:58:59;3.25;;;2.30;;
51556;SDS011;38766;53.194;5.532;2022-07-23T03:01:25;4.05;;;2.47;;
51556;SDS011;38766;53.194;5.532;2022-07-23T03:03:51;5.53;;;2.47;;
51556;SDS011;38766;53.194;5.532;2022-07-23T03:06:16;4.15;;;2.38;;
51556;SDS011;38766;53.194;5.532;2022-07-23T03:08:42;3.45;;;2.53;;
51556;SDS011;38766;53.194;5.532;2022-07-23T03:11:07;3.92;;;2.25;;
51556;SDS011;38766;53.194;5.532;2022-07-23T03:13:36;4.82;;;2.65;;
51556;SDS011;38766;53.194;5.532;2022-07-23T03:16:04;4.88;;;2.40;;
51556;SDS011;38766;53.194;5.532;2022-07-23T03:18:31;7.25;;;2.72;;
51556;SDS011;38766;53.194;5.532;2022-07-23T03:20:56;3.70;;;2.67;;
51556;SDS011;38766;53.194;5.532;2022-07-23T03:23:22;6.55;;;2.67;;
51556;SDS011;38766;53.194;5.532;2022-07-23T03:25:47;4.32;;;2.72;;
51556;SDS011;38766;53.194;5.532;2022-07-23T03:28:14;3.88;;;2.72;;
51556;SDS011;38766;53.194;5.532;2022-07-23T03:30:41;5.88;;;2.42;;
51556;SDS011;38766;53.194;5.532;2022-07-23T03:33:07;2.58;;;2.35;;
51556;SDS011;38766;53.194;5.532;2022-07-23T03:35:33;5.55;;;2.80;;
51556;SDS011;38766;53.194;5.532;2022-07-23T03:37:58;4.10;;;2.50;;
51556;SDS011;38766;53.194;5.532;2022-07-23T03:40:24;3.75;;;2.50;;
51556;SDS011;38766;53.194;5.532;2022-07-23T03:42:50;6.28;;;2.83;;
51556;SDS011;38766;53.194;5.532;2022-07-23T03:45:15;3.38;;;2.63;;
51556;SDS011;38766;53.194;5.532;2022-07-23T03:47:41;5.25;;;2.70;;
51556;SDS011;38766;53.194;5.532;2022-07-23T03:50:08;3.53;;;2.60;;
51556;SDS011;38766;53.194;5.532;2022-07-23T03:52:34;7.63;;;3.13;;
51556;SDS011;38766;53.194;5.532;2022-07-23T03:55:00;6.35;;;3.47;;
51556;SDS011;38766;53.194;5.532;2022-07-23T03:57:26;4.78;;;2.97;;
51556;SDS011;38766;53.194;5.532;2022-07-23T03:59:52;4.05;;;2.75;;
51556;SDS011;38766;53.194;5.532;2022-07-23T04:02:17;3.15;;;2.80;;
51556;SDS011;38766;53.194;5.532;2022-07-23T04:04:43;3.20;;;2.47;;
51556;SDS011;38766;53.194;5.532;2022-07-23T04:07:09;4.25;;;2.95;;
51556;SDS011;38766;53.194;5.532;2022-07-23T04:09:34;4.63;;;2.60;;
51556;SDS011;38766;53.194;5.532;2022-07-23T04:12:00;6.45;;;2.90;;
51556;SDS011;38766;53.194;5.532;2022-07-23T04:14:26;3.20;;;2.70;;
51556;SDS011;38766;53.194;5.532;2022-07-23T04:16:51;5.22;;;2.70;;
51556;SDS011;38766;53.194;5.532;2022-07-23T04:19:17;8.43;;;3.00;;
51556;SDS011;38766;53.194;5.532;2022-07-23T04:21:42;4.57;;;2.80;;
51556;SDS011;38766;53.194;5.532;2022-07-23T04:24:08;4.47;;;3.05;;
51556;SDS011;38766;53.194;5.532;2022-07-23T04:26:34;3.13;;;2.63;;
51556;SDS011;38766;53.194;5.532;2022-07-23T04:28:59;4.70;;;2.85;;
51556;SDS011;38766;53.194;5.532;2022-07-23T04:31:25;3.55;;;2.90;;
51556;SDS011;38766;53.194;5.532;2022-07-23T04:33:50;4.38;;;2.83;;
51556;SDS011;38766;53.194;5.532;2022-07-23T04:36:16;3.38;;;2.95;;
51556;SDS011;38766;53.194;5.532;2022-07-23T04:38:42;3.17;;;2.38;;
51556;SDS011;38766;53.194;5.532;2022-07-23T04:41:07;3.60;;;2.50;;
51556;SDS011;38766;53.194;5.532;2022-07-23T04:43:33;5.35;;;2.70;;
51556;SDS011;38766;53.194;5.532;2022-07-23T04:45:58;4.47;;;2.70;;
51556;SDS011;38766;53.194;5.532;2022-07-23T04:48:24;5.25;;;2.60;;
51556;SDS011;38766;53.194;5.532;2022-07-23T04:50:50;2.78;;;2.55;;
51556;SDS011;38766;53.194;5.532;2022-07-23T04:53:15;3.85;;;2.30;;
51556;SDS011;38766;53.194;5.532;2022-07-23T04:55:42;2.33;;;2.13;;
51556;SDS011;38766;53.194;5.532;2022-07-23T04:58:08;2.83;;;2.15;;
51556;SDS011;38766;53.194;5.532;2022-07-23T05:00:34;3.10;;;1.90;;
51556;SDS011;38766;53.194;5.532;2022-07-23T05:02:59;2.42;;;1.83;;
51556;SDS011;38766;53.194;5.532;2022-07-23T05:05:25;1.65;;;1.52;;
51556;SDS011;38766;53.194;5.532;2022-07-23T05:07:51;3.90;;;1.60;;
51556;SDS011;38766;53.194;5.532;2022-07-23T05:10:16;4.18;;;1.40;;
51556;SDS011;38766;53.194;5.532;2022-07-23T05:12:42;1.48;;;1.17;;
51556;SDS011;38766;53.194;5.532;2022-07-23T05:15:08;2.58;;;1.23;;
51556;SDS011;38766;53.194;5.532;2022-07-23T05:17:33;1.27;;;1.17;;
51556;SDS011;38766;53.194;5.532;2022-07-23T05:19:59;2.20;;;1.20;;
51556;SDS011;38766;53.194;5.532;2022-07-23T05:22:24;3.28;;;1.30;;
51556;SDS011;38766;53.194;5.532;2022-07-23T05:24:50;1.10;;;1.00;;
51556;SDS011;38766;53.194;5.532;2022-07-23T05:27:16;3.22;;;0.98;;
51556;SDS011;38766;53.194;5.532;2022-07-23T05:29:41;1.27;;;1.17;;
51556;SDS011;38766;53.194;5.532;2022-07-23T05:32:07;1.10;;;1.00;;
51556;SDS011;38766;53.194;5.532;2022-07-23T05:34:32;2.03;;;1.10;;
51556;SDS011;38766;53.194;5.532;2022-07-23T05:36:58;4.63;;;1.35;;
51556;SDS011;38766;53.194;5.532;2022-07-23T05:39:23;1.30;;;0.90;;
51556;SDS011;38766;53.194;5.532;2022-07-23T05:41:49;1.65;;;0.90;;
51556;SDS011;38766;53.194;5.532;2022-07-23T05:44:15;1.90;;;1.05;;
51556;SDS011;38766;53.194;5.532;2022-07-23T05:46:40;2.45;;;1.13;;
51556;SDS011;38766;53.194;5.532;2022-07-23T05:49:06;2.38;;;0.90;;
51556;SDS011;38766;53.194;5.532;2022-07-23T05:51:31;3.05;;;0.85;;
51556;SDS011;38766;53.194;5.532;2022-07-23T05:53:57;3.20;;;1.20;;
51556;SDS011;38766;53.194;5.532;2022-07-23T05:56:22;1.95;;;1.00;;
51556;SDS011;38766;53.194;5.532;2022-07-23T05:58:48;4.28;;;1.65;;
51556;SDS011;38766;53.194;5.532;2022-07-23T06:01:14;3.50;;;1.02;;
51556;SDS011;38766;53.194;5.532;2022-07-23T06:03:39;1.60;;;1.00;;
51556;SDS011;38766;53.194;5.532;2022-07-23T06:06:05;1.30;;;1.17;;
51556;SDS011;38766;53.194;5.532;2022-07-23T06:08:31;1.10;;;1.10;;
51556;SDS011;38766;53.194;5.532;2022-07-23T06:10:57;1.60;;;1.02;;
51556;SDS011;38766;53.194;5.532;2022-07-23T06:13:22;1.05;;;0.90;;
51556;SDS011;38766;53.194;5.532;2022-07-23T06:15:48;1.30;;;0.80;;
51556;SDS011;38766;53.194;5.532;2022-07-23T06:18:13;1.73;;;0.95;;
51556;SDS011;38766;53.194;5.532;2022-07-23T06:20:39;2.20;;;0.90;;
51556;SDS011;38766;53.194;5.532;2022-07-23T06:23:05;1.30;;;0.77;;
51556;SDS011;38766;53.194;5.532;2022-07-23T06:25:31;0.90;;;0.90;;
51556;SDS011;38766;53.194;5.532;2022-07-23T06:27:56;2.05;;;1.08;;
51556;SDS011;38766;53.194;5.532;2022-07-23T06:30:22;2.90;;;1.05;;
51556;SDS011;38766;53.194;5.532;2022-07-23T06:32:48;1.70;;;0.90;;
51556;SDS011;38766;53.194;5.532;2022-07-23T06:35:14;2.88;;;1.08;;
51556;SDS011;38766;53.194;5.532;2022-07-23T06:37:40;1.15;;;0.90;;
51556;SDS011;38766;53.194;5.532;2022-07-23T06:40:06;2.78;;;1.05;;
51556;SDS011;38766;53.194;5.532;2022-07-23T06:42:32;2.22;;;0.90;;
51556;SDS011;38766;53.194;5.532;2022-07-23T06:44:57;1.50;;;1.40;;
51556;SDS011;38766;53.194;5.532;2022-07-23T06:47:23;3.83;;;1.60;;
51556;SDS011;38766;53.194;5.532;2022-07-23T06:49:49;3.80;;;1.23;;
51556;SDS011;38766;53.194;5.532;2022-07-23T06:52:15;1.48;;;1.20;;
51556;SDS011;38766;53.194;5.532;2022-07-23T06:54:40;1.20;;;1.10;;
51556;SDS011;38766;53.194;5.532;2022-07-23T06:57:06;1.35;;;0.90;;
51556;SDS011;38766;53.194;5.532;2022-07-23T06:59:31;2.45;;;1.20;;
51556;SDS011;38766;53.194;5.532;2022-07-23T07:01:58;1.95;;;1.20;;
51556;SDS011;38766;53.194;5.532;2022-07-23T07:04:23;0.93;;;0.93;;
51556;SDS011;38766;53.194;5.532;2022-07-23T07:06:49;1.30;;;1.20;;
51556;SDS011;38766;53.194;5.532;2022-07-23T07:09:15;2.55;;;1.58;;
51556;SDS011;38766;53.194;5.532;2022-07-23T07:11:40;1.75;;;1.02;;
51556;SDS011;38766;53.194;5.532;2022-07-23T07:14:06;3.65;;;1.80;;
51556;SDS011;38766;53.194;5.532;2022-07-23T07:16:31;1.38;;;1.10;;
51556;SDS011;38766;53.194;5.532;2022-07-23T07:18:57;2.17;;;1.00;;
51556;SDS011;38766;53.194;5.532;2022-07-23T07:21:23;2.88;;;1.10;;
51556;SDS011;38766;53.194;5.532;2022-07-23T07:23:48;0.80;;;0.80;;
51556;SDS011;38766;53.194;5.532;2022-07-23T07:26:14;1.15;;;1.08;;
51556;SDS011;38766;53.194;5.532;2022-07-23T07:28:39;2.63;;;1.00;;
51556;SDS011;38766;53.194;5.532;2022-07-23T07:31:05;0.80;;;0.80;;
51556;SDS011;38766;53.194;5.532;2022-07-23T07:33:31;1.50;;;0.90;;
51556;SDS011;38766;53.194;5.532;2022-07-23T07:35:56;0.75;;;0.75;;
51556;SDS011;38766;53.194;5.532;2022-07-23T07:38:22;3.45;;;1.30;;
51556;SDS011;38766;53.194;5.532;2022-07-23T07:40:48;1.27;;;1.00;;
51556;SDS011;38766;53.194;5.532;2022-07-23T07:43:13;0.98;;;0.95;;
51556;SDS011;38766;53.194;5.532;2022-07-23T07:45:39;2.53;;;1.17;;
51556;SDS011;38766;53.194;5.532;2022-07-23T07:48:05;1.23;;;0.90;;
51556;SDS011;38766;53.194;5.532;2022-07-23T07:50:30;2.85;;;1.02;;
51556;SDS011;38766;53.194;5.532;2022-07-23T07:52:56;1.83;;;1.10;;
51556;SDS011;38766;53.194;5.532;2022-07-23T07:55:22;3.28;;;1.15;;
51556;SDS011;38766;53.194;5.532;2022-07-23T07:57:47;1.63;;;0.90;;
51556;SDS011;38766;53.194;5.532;2022-07-23T08:00:13;1.50;;;1.40;;
51556;SDS011;38766;53.194;5.532;2022-07-23T08:02:45;2.45;;;1.45;;
51556;SDS011;38766;53.194;5.532;2022-07-23T08:05:19;1.02;;;0.85;;
51556;SDS011;38766;53.194;5.532;2022-07-23T08:07:46;1.23;;;1.10;;
51556;SDS011;38766;53.194;5.532;2022-07-23T08:10:11;2.40;;;1.10;;
51556;SDS011;38766;53.194;5.532;2022-07-23T08:12:41;2.33;;;1.20;;
51556;SDS011;38766;53.194;5.532;2022-07-23T08:15:10;1.08;;;1.08;;
51556;SDS011;38766;53.194;5.532;2022-07-23T08:17:36;2.60;;;1.20;;
51556;SDS011;38766;53.194;5.532;2022-07-23T08:20:03;2.25;;;1.10;;
51556;SDS011;38766;53.194;5.532;2022-07-23T08:22:43;1.60;;;1.17;;
51556;SDS011;38766;53.194;5.532;2022-07-23T08:25:15;5.22;;;1.42;;
51556;SDS011;38766;53.194;5.532;2022-07-23T08:27:44;4.15;;;1.20;;
51556;SDS011;38766;53.194;5.532;2022-07-23T08:30:10;2.22;;;1.02;;
51556;SDS011;38766;53.194;5.532;2022-07-23T08:35:29;2.38;;;1.75;;
51556;SDS011;38766;53.194;5.532;2022-07-23T08:38:02;2.00;;;1.15;;
51556;SDS011;38766;53.194;5.532;2022-07-23T08:40:31;2.28;;;1.15;;
51556;SDS011;38766;53.194;5.532;2022-07-23T08:42:58;2.15;;;1.20;;
51556;SDS011;38766;53.194;5.532;2022-07-23T08:45:25;2.55;;;1.08;;
51556;SDS011;38766;53.194;5.532;2022-07-23T08:47:52;1.20;;;1.10;;
51556;SDS011;38766;53.194;5.532;2022-07-23T08:50:25;1.63;;;1.00;;
51556;SDS011;38766;53.194;5.532;2022-07-23T08:52:51;3.35;;;1.42;;
51556;SDS011;38766;53.194;5.532;2022-07-23T08:55:19;1.25;;;1.15;;
51556;SDS011;38766;53.194;5.532;2022-07-23T08:57:47;4.80;;;1.42;;
51556;SDS011;38766;53.194;5.532;2022-07-23T09:00:15;1.40;;;1.10;;
51556;SDS011;38766;53.194;5.532;2022-07-23T09:02:42;2.75;;;1.20;;
51556;SDS011;38766;53.194;5.532;2022-07-23T09:05:09;4.28;;;1.52;;
51556;SDS011;38766;53.194;5.532;2022-07-23T09:07:37;1.52;;;1.20;;
51556;SDS011;38766;53.194;5.532;2022-07-23T09:10:23;1.40;;;1.30;;
51556;SDS011;38766;53.194;5.532;2022-07-23T09:12:48;2.22;;;1.00;;
51556;SDS011;38766;53.194;5.532;2022-07-23T09:15:14;2.95;;;1.67;;
51556;SDS011;38766;53.194;5.532;2022-07-23T09:17:41;1.05;;;1.00;;
51556;SDS011;38766;53.194;5.532;2022-07-23T09:20:11;1.92;;;1.40;;
51556;SDS011;38766;53.194;5.532;2022-07-23T09:22:38;3.25;;;1.30;;
51556;SDS011;38766;53.194;5.532;2022-07-23T09:30:15;6.65;;;1.50;;
51556;SDS011;38766;53.194;5.532;2022-07-23T09:32:40;2.95;;;1.13;;
51556;SDS011;38766;53.194;5.532;2022-07-23T09:35:07;1.48;;;1.10;;
51556;SDS011;38766;53.194;5.532;2022-07-23T09:37:32;0.98;;;0.98;;
51556;SDS011;38766;53.194;5.532;2022-07-23T09:40:05;2.15;;;1.48;;
51556;SDS011;38766;53.194;5.532;2022-07-23T09:42:33;1.73;;;1.40;;
51556;SDS011;38766;53.194;5.532;2022-07-23T09:44:59;1.42;;;1.27;;
51556;SDS011;38766;53.194;5.532;2022-07-23T09:47:30;1.98;;;1.30;;
51556;SDS011;38766;53.194;5.532;2022-07-23T09:49:57;2.13;;;1.10;;
51556;SDS011;38766;53.194;5.532;2022-07-23T09:52:32;1.40;;;1.23;;
51556;SDS011;38766;53.194;5.532;2022-07-23T09:54:59;1.83;;;0.90;;
51556;SDS011;38766;53.194;5.532;2022-07-23T09:57:26;2.42;;;1.35;;
51556;SDS011;38766;53.194;5.532;2022-07-23T09:59:53;3.55;;;1.20;;
51556;SDS011;38766;53.194;5.532;2022-07-23T10:02:23;1.75;;;1.10;;
51556;SDS011;38766;53.194;5.532;2022-07-23T10:04:50;1.38;;;1.10;;
51556;SDS011;38766;53.194;5.532;2022-07-23T10:07:20;2.42;;;0.85;;
51556;SDS011;38766;53.194;5.532;2022-07-23T10:09:48;1.10;;;1.00;;
51556;SDS011;38766;53.194;5.532;2022-07-23T10:12:17;1.42;;;1.20;;
51556;SDS011;38766;53.194;5.532;2022-07-23T10:14:50;2.40;;;1.17;;
51556;SDS011;38766;53.194;5.532;2022-07-23T10:17:16;2.63;;;0.98;;
51556;SDS011;38766;53.194;5.532;2022-07-23T10:19:43;2.80;;;1.40;;
51556;SDS011;38766;53.194;5.532;2022-07-23T10:22:18;1.20;;;1.05;;
51556;SDS011;38766;53.194;5.532;2022-07-23T10:30:04;3.05;;;1.08;;
51556;SDS011;38766;53.194;5.532;2022-07-23T10:32:37;2.47;;;1.30;;
51556;SDS011;38766;53.194;5.532;2022-07-23T10:38:22;3.63;;;1.20;;
51556;SDS011;38766;53.194;5.532;2022-07-23T10:40:55;3.25;;;1.13;;
51556;SDS011;38766;53.194;5.532;2022-07-23T10:43:23;1.52;;;1.10;;
51556;SDS011;38766;53.194;5.532;2022-07-23T10:45:49;2.58;;;1.35;;
51556;SDS011;38766;53.194;5.532;2022-07-23T10:48:17;2.05;;;1.13;;
51556;SDS011;38766;53.194;5.532;2022-07-23T10:50:44;3.03;;;1.33;;
51556;SDS011;38766;53.194;5.532;2022-07-23T10:56:17;1.92;;;1.02;;
51556;SDS011;38766;53.194;5.532;2022-07-23T10:59:05;1.92;;;1.20;;
51556;SDS011;38766;53.194;5.532;2022-07-23T11:01:35;1.08;;;0.93;;
51556;SDS011;38766;53.194;5.532;2022-07-23T11:04:02;1.15;;;1.00;;
51556;SDS011;38766;53.194;5.532;2022-07-23T11:12:36;2.90;;;1.30;;
51556;SDS011;38766;53.194;5.532;2022-07-23T11:17:38;1.33;;;1.23;;
51556;SDS011;38766;53.194;5.532;2022-07-23T11:27:46;3.78;;;1.30;;
51556;SDS011;38766;53.194;5.532;2022-07-23T11:35:32;1.85;;;1.13;;
51556;SDS011;38766;53.194;5.532;2022-07-23T11:38:04;3.97;;;1.30;;
51556;SDS011;38766;53.194;5.532;2022-07-23T11:40:40;1.60;;;1.17;;
51556;SDS011;38766;53.194;5.532;2022-07-23T11:43:07;1.08;;;1.00;;
51556;SDS011;38766;53.194;5.532;2022-07-23T11:45:35;2.15;;;1.08;;
51556;SDS011;38766;53.194;5.532;2022-07-23T11:48:03;1.52;;;1.17;;
51556;SDS011;38766;53.194;5.532;2022-07-23T11:50:31;1.52;;;1.23;;
51556;SDS011;38766;53.194;5.532;2022-07-23T11:52:58;1.63;;;1.15;;
51556;SDS011;38766;53.194;5.532;2022-07-23T11:55:23;1.75;;;1.20;;
51556;SDS011;38766;53.194;5.532;2022-07-23T11:57:50;1.20;;;1.00;;
51556;SDS011;38766;53.194;5.532;2022-07-23T12:00:22;2.10;;;1.23;;
51556;SDS011;38766;53.194;5.532;2022-07-23T12:02:50;1.42;;;1.10;;
51556;SDS011;38766;53.194;5.532;2022-07-23T12:05:19;3.08;;;1.30;;
51556;SDS011;38766;53.194;5.532;2022-07-23T12:07:47;2.75;;;1.20;;
51556;SDS011;38766;53.194;5.532;2022-07-23T12:12:47;1.25;;;1.15;;
51556;SDS011;38766;53.194;5.532;2022-07-23T12:15:16;1.40;;;1.25;;
51556;SDS011;38766;53.194;5.532;2022-07-23T12:17:45;1.77;;;1.20;;
51556;SDS011;38766;53.194;5.532;2022-07-23T12:20:13;1.58;;;1.40;;
51556;SDS011;38766;53.194;5.532;2022-07-23T12:22:41;2.05;;;1.33;;
51556;SDS011;38766;53.194;5.532;2022-07-23T12:25:18;2.90;;;1.58;;
51556;SDS011;38766;53.194;5.532;2022-07-23T12:27:46;1.23;;;1.10;;
51556;SDS011;38766;53.194;5.532;2022-07-23T12:30:41;2.10;;;1.30;;
51556;SDS011;38766;53.194;5.532;2022-07-23T12:33:09;2.60;;;1.77;;
51556;SDS011;38766;53.194;5.532;2022-07-23T12:35:40;2.40;;;1.27;;
51556;SDS011;38766;53.194;5.532;2022-07-23T12:38:11;1.85;;;1.25;;
51556;SDS011;38766;53.194;5.532;2022-07-23T12:40:43;1.83;;;1.25;;
51556;SDS011;38766;53.194;5.532;2022-07-23T12:43:19;1.83;;;1.27;;
51556;SDS011;38766;53.194;5.532;2022-07-23T12:45:53;4.25;;;1.65;;
51556;SDS011;38766;53.194;5.532;2022-07-23T12:48:21;2.47;;;1.27;;
51556;SDS011;38766;53.194;5.532;2022-07-23T12:50:59;2.08;;;1.40;;
51556;SDS011;38766;53.194;5.532;2022-07-23T12:53:39;1.70;;;1.50;;
51556;SDS011;38766;53.194;5.532;2022-07-23T12:56:15;2.42;;;1.65;;
51556;SDS011;38766;53.194;5.532;2022-07-23T13:01:26;3.05;;;1.80;;
51556;SDS011;38766;53.194;5.532;2022-07-23T13:03:58;6.60;;;1.92;;
51556;SDS011;38766;53.194;5.532;2022-07-23T13:06:38;2.63;;;1.98;;
51556;SDS011;38766;53.194;5.532;2022-07-23T13:09:09;1.85;;;1.73;;
51556;SDS011;38766;53.194;5.532;2022-07-23T13:11:40;1.83;;;1.40;;
51556;SDS011;38766;53.194;5.532;2022-07-23T13:14:06;1.92;;;1.73;;
51556;SDS011;38766;53.194;5.532;2022-07-23T13:16:32;3.08;;;1.60;;
51556;SDS011;38766;53.194;5.532;2022-07-23T13:18:59;2.63;;;1.50;;
51556;SDS011;38766;53.194;5.532;2022-07-23T13:21:25;1.83;;;1.42;;
51556;SDS011;38766;53.194;5.532;2022-07-23T13:23:53;1.98;;;1.60;;
51556;SDS011;38766;53.194;5.532;2022-07-23T13:26:19;1.88;;;1.35;;
51556;SDS011;38766;53.194;5.532;2022-07-23T13:28:45;1.52;;;1.20;;
51556;SDS011;38766;53.194;5.532;2022-07-23T13:31:11;1.52;;;1.30;;
51556;SDS011;38766;53.194;5.532;2022-07-23T13:33:36;2.05;;;1.60;;
51556;SDS011;38766;53.194;5.532;2022-07-23T13:36:02;2.08;;;1.90;;
51556;SDS011;38766;53.194;5.532;2022-07-23T13:38:28;3.08;;;2.05;;
51556;SDS011;38766;53.194;5.532;2022-07-23T13:40:54;3.47;;;2.00;;
51556;SDS011;38766;53.194;5.532;2022-07-23T13:43:22;3.53;;;2.03;;
51556;SDS011;38766;53.194;5.532;2022-07-23T13:45:49;4.20;;;2.22;;
51556;SDS011;38766;53.194;5.532;2022-07-23T13:48:16;2.08;;;1.90;;
51556;SDS011;38766;53.194;5.532;2022-07-23T13:50:42;2.17;;;1.83;;
51556;SDS011;38766;53.194;5.532;2022-07-23T13:53:10;3.80;;;2.10;;
51556;SDS011;38766;53.194;5.532;2022-07-23T13:55:38;2.35;;;1.60;;
51556;SDS011;38766;53.194;5.532;2022-07-23T13:58:04;2.85;;;1.75;;
51556;SDS011;38766;53.194;5.532;2022-07-23T14:00:31;1.40;;;1.30;;
51556;SDS011;38766;53.194;5.532;2022-07-23T14:02:58;3.90;;;1.50;;
51556;SDS011;38766;53.194;5.532;2022-07-23T14:05:24;2.75;;;1.58;;
51556;SDS011;38766;53.194;5.532;2022-07-23T14:07:50;1.98;;;1.60;;
51556;SDS011;38766;53.194;5.532;2022-07-23T14:10:17;1.85;;;1.13;;
51556;SDS011;38766;53.194;5.532;2022-07-23T14:12:44;3.47;;;1.48;;
51556;SDS011;38766;53.194;5.532;2022-07-23T14:15:10;1.20;;;1.20;;
51556;SDS011;38766;53.194;5.532;2022-07-23T14:17:36;1.65;;;1.42;;
51556;SDS011;38766;53.194;5.532;2022-07-23T14:20:04;1.95;;;1.60;;
51556;SDS011;38766;53.194;5.532;2022-07-23T14:22:30;3.00;;;1.70;;
51556;SDS011;38766;53.194;5.532;2022-07-23T14:24:56;2.53;;;1.40;;
51556;SDS011;38766;53.194;5.532;2022-07-23T14:27:25;3.83;;;1.27;;
51556;SDS011;38766;53.194;5.532;2022-07-23T14:29:52;2.88;;;1.40;;
51556;SDS011;38766;53.194;5.532;2022-07-23T14:32:18;2.13;;;1.60;;
51556;SDS011;38766;53.194;5.532;2022-07-23T14:34:43;1.45;;;1.20;;
51556;SDS011;38766;53.194;5.532;2022-07-23T14:37:09;1.40;;;1.30;;
51556;SDS011;38766;53.194;5.532;2022-07-23T14:39:39;1.30;;;1.20;;
51556;SDS011;38766;53.194;5.532;2022-07-23T14:42:06;1.77;;;1.30;;
51556;SDS011;38766;53.194;5.532;2022-07-23T14:44:32;1.33;;;1.20;;
51556;SDS011;38766;53.194;5.532;2022-07-23T14:46:58;2.35;;;1.20;;
51556;SDS011;38766;53.194;5.532;2022-07-23T14:49:25;1.98;;;1.40;;
51556;SDS011;38766;53.194;5.532;2022-07-23T14:51:51;1.20;;;1.13;;
51556;SDS011;38766;53.194;5.532;2022-07-23T14:54:17;3.70;;;1.65;;
51556;SDS011;38766;53.194;5.532;2022-07-23T14:56:43;1.45;;;1.17;;
51556;SDS011;38766;53.194;5.532;2022-07-23T14:59:09;2.78;;;1.95;;
51556;SDS011;38766;53.194;5.532;2022-07-23T15:01:34;1.90;;;1.38;;
51556;SDS011;38766;53.194;5.532;2022-07-23T15:04:01;6.78;;;1.80;;
51556;SDS011;38766;53.194;5.532;2022-07-23T15:06:27;3.75;;;1.60;;
51556;SDS011;38766;53.194;5.532;2022-07-23T15:08:53;1.40;;;1.30;;
51556;SDS011;38766;53.194;5.532;2022-07-23T15:11:18;3.10;;;1.73;;
51556;SDS011;38766;53.194;5.532;2022-07-23T15:13:44;2.13;;;1.65;;
51556;SDS011;38766;53.194;5.532;2022-07-23T15:16:10;1.65;;;1.55;;
51556;SDS011;38766;53.194;5.532;2022-07-23T15:18:36;1.40;;;1.30;;
51556;SDS011;38766;53.194;5.532;2022-07-23T15:21:02;1.45;;;1.35;;
51556;SDS011;38766;53.194;5.532;2022-07-23T15:23:29;1.67;;;1.27;;
51556;SDS011;38766;53.194;5.532;2022-07-23T15:25:55;1.58;;;1.40;;
51556;SDS011;38766;53.194;5.532;2022-07-23T15:28:21;1.50;;;1.40;;
51556;SDS011;38766;53.194;5.532;2022-07-23T15:30:48;2.08;;;1.30;;
51556;SDS011;38766;53.194;5.532;2022-07-23T15:33:15;1.55;;;1.27;;